Time;durP1;ratioP1;P1;durP2;ratioP2;P2;SDS_P1;SDS_P2;PMS_P1;PMS_P2;Temp;Humidity;BMP_temperature;BMP_pressure;BME280_temperature;BME280_humidity;BME280_pressure;Samples;Min_cycle;Max_cycle;Signal;HPM_P1;HPM_P2
2021/03/07 00:00:13;;;;;;;0.52;0.10;;;1.10;77.50;;;;;;5027372;28;20048;-75
2021/03/07 00:02:39;;;;;;;0.45;0.22;;;1.10;77.70;;;;;;5028353;28;20041;-75
2021/03/07 00:05:06;;;;;;;0.10;0.10;;;1.10;77.70;;;;;;5027937;28;20041;-75
2021/03/07 00:07:32;;;;;;;0.15;0.10;;;1.00;77.70;;;;;;5028072;28;20045;-75
2021/03/07 00:09:58;;;;;;;0.10;0.10;;;1.00;77.80;;;;;;5026946;28;20080;-75
2021/03/07 00:12:23;;;;;;;0.20;0.20;;;1.00;77.90;;;;;;5027053;28;20034;-74
2021/03/07 00:14:49;;;;;;;0.43;0.30;;;0.90;77.90;;;;;;5027949;28;20038;-75
2021/03/07 00:17:15;;;;;;;0.65;0.20;;;0.90;78.10;;;;;;5028632;28;20050;-75
2021/03/07 00:19:41;;;;;;;0.25;0.25;;;0.90;78.10;;;;;;5029382;28;20495;-75
2021/03/07 00:22:07;;;;;;;0.47;0.30;;;0.80;78.10;;;;;;5011843;28;20480;-75
2021/03/07 00:24:32;;;;;;;0.10;0.10;;;0.80;78.20;;;;;;5028654;28;20045;-75
2021/03/07 00:26:58;;;;;;;0.45;0.20;;;0.80;78.40;;;;;;5028437;28;20050;-75
2021/03/07 00:29:24;;;;;;;0.30;0.30;;;0.70;78.40;;;;;;5028822;28;20105;-75
2021/03/07 00:31:50;;;;;;;0.17;0.17;;;0.70;78.50;;;;;;5028894;28;20135;-75
2021/03/07 00:34:16;;;;;;;0.73;0.20;;;0.70;78.60;;;;;;5028817;28;20046;-75
2021/03/07 00:36:42;;;;;;;0.20;0.20;;;0.60;78.60;;;;;;5029233;28;20049;-75
2021/03/07 00:39:08;;;;;;;0.32;0.30;;;0.60;78.70;;;;;;5011305;28;20065;-75
2021/03/07 00:41:35;;;;;;;0.20;0.13;;;0.60;78.80;;;;;;5020914;28;20504;-73
2021/03/07 00:44:01;;;;;;;0.13;0.10;;;0.50;78.90;;;;;;5019480;28;20041;-75
2021/03/07 00:46:26;;;;;;;0.13;0.13;;;0.40;78.90;;;;;;5010283;28;20045;-75
2021/03/07 00:48:52;;;;;;;0.20;0.20;;;0.40;79.00;;;;;;5027758;28;20048;-75
2021/03/07 00:51:18;;;;;;;0.20;0.20;;;0.40;79.10;;;;;;5027280;28;20096;-75
2021/03/07 00:53:44;;;;;;;0.30;0.20;;;0.30;79.10;;;;;;5021742;28;20042;-73
2021/03/07 00:56:09;;;;;;;0.40;0.17;;;0.30;79.20;;;;;;5020424;28;20046;-74
2021/03/07 00:58:35;;;;;;;0.38;0.10;;;0.30;79.30;;;;;;5019882;28;20523;-74
2021/03/07 01:01:01;;;;;;;0.28;0.20;;;0.20;79.30;;;;;;5020897;28;20034;-74
2021/03/07 01:03:26;;;;;;;0.20;0.20;;;0.20;79.40;;;;;;5020200;28;20037;-73
2021/03/07 01:05:52;;;;;;;0.28;0.10;;;0.20;79.50;;;;;;5003014;28;20038;-74
2021/03/07 01:08:18;;;;;;;0.70;0.13;;;0.20;79.50;;;;;;5020804;28;20125;-74
2021/03/07 01:10:45;;;;;;;0.20;0.20;;;0.20;79.60;;;;;;5003646;28;20041;-73
2021/03/07 01:13:14;;;;;;;0.10;0.10;;;0.10;79.60;;;;;;5021918;28;20034;-74
2021/03/07 01:15:40;;;;;;;0.15;0.10;;;0.00;79.60;;;;;;5021057;28;20114;-74
2021/03/07 01:18:06;;;;;;;0.10;0.10;;;0.00;79.70;;;;;;5003291;28;20562;-73
2021/03/07 01:20:33;;;;;;;0.52;0.22;;;0.00;79.70;;;;;;5020644;28;20033;-74
2021/03/07 01:22:59;;;;;;;0.28;0.28;;;0.00;79.80;;;;;;4988026;28;20458;-74
2021/03/07 01:25:31;;;;;;;0.20;0.20;;;-0.10;79.80;;;;;;4987584;28;20042;-73
2021/03/07 01:27:57;;;;;;;0.52;0.20;;;-0.10;79.90;;;;;;5021880;28;20061;-73
2021/03/07 01:30:24;;;;;;;0.20;0.20;;;-0.10;79.90;;;;;;5020993;28;20042;-74
2021/03/07 01:32:50;;;;;;;1.05;0.30;;;-0.20;79.80;;;;;;5004552;28;20189;-74
2021/03/07 01:35:17;;;;;;;0.60;0.40;;;-0.10;79.90;;;;;;5021617;28;20088;-73
2021/03/07 01:37:43;;;;;;;0.32;0.30;;;-0.20;79.90;;;;;;5023282;28;20109;-74
2021/03/07 01:40:13;;;;;;;0.20;0.20;;;-0.20;79.90;;;;;;5022357;28;20038;-74
2021/03/07 01:42:58;;;;;;;0.45;0.32;;;-0.30;80.00;;;;;;5022468;28;20064;-74
2021/03/07 01:45:26;;;;;;;0.17;0.10;;;-0.30;80.10;;;;;;5019286;28;20042;-74
2021/03/07 01:47:54;;;;;;;0.70;0.22;;;-0.40;80.00;;;;;;5015271;28;20467;-73
2021/03/07 01:50:23;;;;;;;0.40;0.30;;;-0.30;80.10;;;;;;5014888;28;20025;-73
2021/03/07 01:52:49;;;;;;;0.32;0.20;;;-0.30;80.10;;;;;;4998355;28;20042;-74
2021/03/07 01:55:17;;;;;;;0.20;0.10;;;-0.30;80.20;;;;;;5004631;28;20038;-74
2021/03/07 01:57:45;;;;;;;0.20;0.20;;;-0.40;80.20;;;;;;5005364;28;20088;-74
2021/03/07 02:00:11;;;;;;;0.25;0.17;;;-0.40;80.20;;;;;;5022793;28;20034;-74
2021/03/07 02:02:38;;;;;;;0.08;0.08;;;-0.40;80.30;;;;;;5022602;28;20052;-74
2021/03/07 02:05:11;;;;;;;0.10;0.10;;;-0.50;80.20;;;;;;5023686;28;20072;-74
2021/03/07 02:07:39;;;;;;;0.50;0.15;;;-0.40;80.30;;;;;;5023635;28;20053;-74
2021/03/07 02:10:07;;;;;;;0.10;0.10;;;-0.50;80.30;;;;;;5023342;28;20105;-74
2021/03/07 02:12:34;;;;;;;0.20;0.13;;;-0.50;80.40;;;;;;5020751;28;20049;-74
2021/03/07 02:15:05;;;;;;;0.65;0.28;;;-0.50;80.40;;;;;;5022536;28;20042;-74
2021/03/07 02:17:31;;;;;;;0.30;0.20;;;-0.50;80.50;;;;;;5021968;28;20046;-74
2021/03/07 02:19:57;;;;;;;0.20;0.20;;;-0.50;80.60;;;;;;5022467;28;20053;-74
2021/03/07 02:22:31;;;;;;;0.50;0.30;;;-0.60;80.50;;;;;;5003542;28;20096;-74
2021/03/07 02:24:57;;;;;;;0.00;0.00;;;-0.60;80.60;;;;;;5006559;28;20041;-74
2021/03/07 02:27:23;;;;;;;0.20;0.20;;;-0.60;80.60;;;;;;5005732;28;20077;-74
2021/03/07 02:29:49;;;;;;;0.20;0.20;;;-0.60;80.60;;;;;;5021145;28;20053;-74
2021/03/07 02:32:20;;;;;;;0.70;0.22;;;-0.70;80.60;;;;;;5023699;28;20117;-74
2021/03/07 02:34:55;;;;;;;0.20;0.20;;;-0.70;80.70;;;;;;5026333;28;20061;-74
2021/03/07 02:37:22;;;;;;;0.10;0.10;;;-0.70;80.80;;;;;;5026214;28;20091;-74
2021/03/07 02:39:49;;;;;;;0.20;0.20;;;-0.70;80.80;;;;;;5009180;28;20197;-74
2021/03/07 02:42:21;;;;;;;0.35;0.20;;;-0.80;80.80;;;;;;5027168;28;20045;-74
2021/03/07 02:44:56;;;;;;;0.20;0.15;;;-0.80;80.80;;;;;;5026500;28;20034;-74
2021/03/07 02:47:23;;;;;;;0.20;0.20;;;-0.80;80.90;;;;;;5027068;28;20042;-74
2021/03/07 02:49:51;;;;;;;0.15;0.10;;;-0.80;80.90;;;;;;5026896;28;20057;-74
2021/03/07 02:52:17;;;;;;;0.80;0.30;;;-0.90;80.90;;;;;;5027406;28;20050;-74
2021/03/07 02:54:44;;;;;;;0.65;0.10;;;-0.90;81.00;;;;;;5009895;28;20034;-74
2021/03/07 02:57:11;;;;;;;0.28;0.20;;;-1.00;81.00;;;;;;5026722;28;20042;-74
2021/03/07 02:59:39;;;;;;;0.10;0.10;;;-1.00;80.90;;;;;;5026731;28;20053;-74
2021/03/07 03:02:05;;;;;;;0.40;0.20;;;-1.00;81.00;;;;;;5009339;28;20658;-74
2021/03/07 03:04:34;;;;;;;0.10;0.10;;;-1.00;81.00;;;;;;5026215;28;20062;-74
2021/03/07 03:07:01;;;;;;;0.40;0.38;;;-0.90;81.10;;;;;;5027056;28;20103;-74
2021/03/07 03:09:29;;;;;;;0.47;0.20;;;-1.00;81.00;;;;;;5009503;28;20037;-74
2021/03/07 03:11:58;;;;;;;0.10;0.10;;;-1.00;81.00;;;;;;5026382;28;20042;-74
2021/03/07 03:14:26;;;;;;;0.35;0.10;;;-1.00;81.00;;;;;;5009572;28;20061;-74
2021/03/07 03:16:54;;;;;;;0.40;0.17;;;-1.00;81.10;;;;;;5027498;28;20077;-74
2021/03/07 03:19:23;;;;;;;0.22;0.10;;;-1.10;81.10;;;;;;5009470;28;20384;-75
2021/03/07 03:21:49;;;;;;;0.45;0.25;;;-1.10;81.10;;;;;;5008958;28;20132;-74
2021/03/07 03:24:15;;;;;;;0.10;0.10;;;-1.10;81.20;;;;;;5009215;28;20042;-74
2021/03/07 03:26:42;;;;;;;0.47;0.20;;;-1.10;81.30;;;;;;5009074;28;20125;-74
2021/03/07 03:29:08;;;;;;;0.10;0.10;;;-1.20;81.30;;;;;;5009406;28;20064;-74
2021/03/07 03:31:35;;;;;;;0.10;0.10;;;-1.20;81.30;;;;;;5009590;28;20050;-74
2021/03/07 03:34:02;;;;;;;0.35;0.20;;;-1.20;81.30;;;;;;5027640;28;20105;-74
2021/03/07 03:36:29;;;;;;;0.25;0.10;;;-1.20;81.40;;;;;;5009778;28;20057;-74
2021/03/07 03:39:03;;;;;;;0.20;0.20;;;-1.10;81.40;;;;;;5027611;28;20050;-74
2021/03/07 03:41:33;;;;;;;0.65;0.20;;;-1.30;81.30;;;;;;5027709;28;20041;-74
2021/03/07 03:44:01;;;;;;;0.45;0.20;;;-1.30;81.30;;;;;;5011082;28;20054;-74
2021/03/07 03:46:31;;;;;;;0.15;0.10;;;-1.30;81.30;;;;;;5028252;28;20045;-74
2021/03/07 03:49:02;;;;;;;0.10;0.10;;;-1.30;81.40;;;;;;5010817;28;20044;-74
2021/03/07 03:51:33;;;;;;;0.25;0.10;;;-1.30;81.50;;;;;;5010834;28;20073;-74
2021/03/07 03:54:02;;;;;;;0.22;0.15;;;-1.30;81.50;;;;;;5010103;28;20046;-75
2021/03/07 03:56:28;;;;;;;0.13;0.13;;;-1.40;81.50;;;;;;5027710;28;20466;-75
2021/03/07 03:58:56;;;;;;;0.40;0.22;;;-1.30;81.60;;;;;;5011179;28;20046;-74
2021/03/07 04:01:23;;;;;;;0.50;0.30;;;-1.40;81.60;;;;;;5027532;28;20034;-75
2021/03/07 04:03:53;;;;;;;0.90;0.38;;;-1.50;81.50;;;;;;5028423;28;20053;-75
2021/03/07 04:06:25;;;;;;;0.20;0.15;;;-1.50;81.50;;;;;;5028155;28;20045;-75
2021/03/07 04:08:52;;;;;;;0.10;0.10;;;-1.40;81.60;;;;;;5011125;28;20121;-75
2021/03/07 04:11:19;;;;;;;0.20;0.20;;;-1.50;81.60;;;;;;5028744;28;20046;-75
2021/03/07 04:13:45;;;;;;;0.30;0.30;;;-1.50;81.60;;;;;;5010748;28;20041;-75
2021/03/07 04:16:13;;;;;;;0.10;0.10;;;-1.50;81.70;;;;;;5027539;28;20077;-75
2021/03/07 04:18:40;;;;;;;0.20;0.08;;;-1.50;81.70;;;;;;5027478;28;20428;-75
2021/03/07 04:21:07;;;;;;;0.40;0.22;;;-1.50;81.80;;;;;;5011612;28;20129;-75
2021/03/07 04:23:33;;;;;;;0.10;0.10;;;-1.60;81.70;;;;;;5026972;28;20492;-75
2021/03/07 04:25:59;;;;;;;0.43;0.25;;;-1.60;81.70;;;;;;5029110;28;20034;-74
2021/03/07 04:28:25;;;;;;;0.20;0.20;;;-1.50;81.80;;;;;;5027736;28;20060;-75
2021/03/07 04:30:52;;;;;;;0.75;0.25;;;-1.60;81.80;;;;;;5028789;28;20067;-75
2021/03/07 04:33:19;;;;;;;0.50;0.32;;;-1.70;81.70;;;;;;5029094;28;20113;-75
2021/03/07 04:35:45;;;;;;;0.70;0.20;;;-1.70;81.80;;;;;;5028641;28;20034;-75
2021/03/07 04:38:11;;;;;;;0.82;0.30;;;-1.60;81.80;;;;;;5012067;28;20068;-75
2021/03/07 04:40:39;;;;;;;0.30;0.22;;;-1.60;81.80;;;;;;5011854;28;20030;-75
2021/03/07 04:43:06;;;;;;;0.20;0.20;;;-1.60;81.80;;;;;;5029102;28;20117;-75
2021/03/07 04:45:32;;;;;;;0.10;0.10;;;-1.60;81.80;;;;;;5012248;28;20056;-75
2021/03/07 04:47:58;;;;;;;0.30;0.10;;;-1.70;81.70;;;;;;5011750;28;20090;-75
2021/03/07 04:50:26;;;;;;;0.47;0.13;;;-1.70;81.70;;;;;;5028740;28;20077;-75
2021/03/07 04:52:52;;;;;;;0.20;0.20;;;-1.70;81.70;;;;;;5028398;28;20084;-75
2021/03/07 04:55:18;;;;;;;0.80;0.20;;;-1.70;81.70;;;;;;4995240;28;20117;-75
2021/03/07 04:57:44;;;;;;;0.20;0.10;;;-1.70;81.80;;;;;;5030133;28;20064;-75
2021/03/07 05:00:13;;;;;;;0.10;0.10;;;-1.70;81.80;;;;;;5027790;28;20105;-75
2021/03/07 05:02:39;;;;;;;0.30;0.17;;;-1.70;81.80;;;;;;5010771;28;20038;-75
2021/03/07 05:05:06;;;;;;;0.20;0.20;;;-1.80;81.70;;;;;;5028189;28;20068;-75
2021/03/07 05:07:32;;;;;;;0.20;0.10;;;-1.80;81.80;;;;;;5011516;28;20049;-75
2021/03/07 05:09:58;;;;;;;0.47;0.30;;;-1.80;81.90;;;;;;4994900;28;20065;-75
2021/03/07 05:12:24;;;;;;;0.85;0.20;;;-1.80;81.90;;;;;;5026931;28;20042;-75
2021/03/07 05:14:50;;;;;;;0.30;0.28;;;-1.80;82.50;;;;;;5010220;28;20062;-75
2021/03/07 05:17:16;;;;;;;0.57;0.20;;;-1.90;81.90;;;;;;5026613;28;20049;-75
2021/03/07 05:19:41;;;;;;;0.15;0.13;;;-1.80;81.90;;;;;;5027235;28;20034;-75
2021/03/07 05:22:07;;;;;;;0.20;0.20;;;-1.80;81.90;;;;;;5027956;28;20037;-75
2021/03/07 05:24:33;;;;;;;0.10;0.10;;;-1.80;81.90;;;;;;5028031;28;20034;-75
2021/03/07 05:27:05;;;;;;;0.45;0.20;;;-1.80;81.90;;;;;;5027959;28;20034;-75
2021/03/07 05:29:33;;;;;;;0.20;0.20;;;-1.80;81.90;;;;;;5027695;28;20046;-75
2021/03/07 05:31:59;;;;;;;0.10;0.10;;;-1.80;81.90;;;;;;4994004;28;20060;-75
2021/03/07 05:34:25;;;;;;;0.20;0.20;;;-1.80;81.90;;;;;;5010078;28;20144;-75
2021/03/07 05:36:51;;;;;;;0.38;0.13;;;-1.80;81.90;;;;;;5027783;28;20081;-75
2021/03/07 05:39:16;;;;;;;0.00;0.00;;;-1.70;81.90;;;;;;5027448;28;20067;-75
2021/03/07 05:41:42;;;;;;;0.13;0.10;;;-1.80;81.90;;;;;;5028214;28;20050;-75
2021/03/07 05:44:09;;;;;;;0.30;0.10;;;-1.80;81.90;;;;;;5031451;28;20046;-75
2021/03/07 05:46:37;;;;;;;0.10;0.10;;;-1.90;81.90;;;;;;5031566;28;20046;-75
2021/03/07 05:49:04;;;;;;;0.05;0.05;;;-1.80;81.90;;;;;;5030376;28;20052;-76
2021/03/07 05:51:30;;;;;;;0.00;0.00;;;-1.80;81.90;;;;;;5031207;28;20054;-76
2021/03/07 05:53:56;;;;;;;0.05;0.00;;;-1.80;81.90;;;;;;5031363;28;20113;-76
2021/03/07 05:56:23;;;;;;;0.10;0.10;;;-1.80;81.90;;;;;;5030708;28;20076;-76
2021/03/07 05:58:50;;;;;;;0.10;0.10;;;-1.80;81.80;;;;;;5031194;28;20042;-76
2021/03/07 06:01:16;;;;;;;0.13;0.10;;;-1.70;81.90;;;;;;5031663;28;20034;-76
2021/03/07 06:03:42;;;;;;;0.10;0.10;;;-1.70;81.80;;;;;;5014828;28;20042;-76
2021/03/07 06:06:09;;;;;;;0.28;0.20;;;-1.70;81.80;;;;;;5031669;28;20050;-76
2021/03/07 06:08:34;;;;;;;0.10;0.10;;;-1.70;81.70;;;;;;5014194;28;20046;-76
2021/03/07 06:11:00;;;;;;;0.17;0.17;;;-1.70;81.70;;;;;;5031437;28;20038;-76
2021/03/07 06:13:37;;;;;;;0.32;0.22;;;-1.70;81.60;;;;;;5032116;28;20068;-76
2021/03/07 06:16:08;;;;;;;0.20;0.20;;;-1.60;81.70;;;;;;5015578;28;20033;-75
2021/03/07 06:18:44;;;;;;;1.17;0.40;;;-1.60;81.60;;;;;;5032196;28;20042;-75
2021/03/07 06:21:28;;;;;;;0.10;0.03;;;-1.50;81.60;;;;;;5032465;28;20049;-75
2021/03/07 06:23:55;;;;;;;0.22;0.10;;;-1.50;81.50;;;;;;5010784;28;20073;-75
2021/03/07 06:29:16;;;;;;;0.17;0.10;;;-1.40;81.50;;;;;;5446426;23;20493;-76
2021/03/07 06:31:42;;;;;;;0.08;0.08;;;-1.40;81.30;;;;;;4982002;28;20046;-76
2021/03/07 06:34:08;;;;;;;0.03;0.03;;;-1.30;81.30;;;;;;4981458;28;20039;-76
2021/03/07 06:36:36;;;;;;;0.10;0.10;;;-1.30;81.20;;;;;;4981012;28;20471;-76
2021/03/07 06:39:05;;;;;;;0.00;0.00;;;-1.20;81.20;;;;;;4964901;28;20129;-75
2021/03/07 06:41:33;;;;;;;0.10;0.10;;;-1.20;81.10;;;;;;4981563;28;20043;-76
2021/03/07 06:44:18;;;;;;;0.40;0.10;;;-1.10;81.10;;;;;;4981922;28;20043;-76
2021/03/07 06:46:46;;;;;;;0.00;0.00;;;-1.10;81.10;;;;;;4980708;28;20041;-75
2021/03/07 06:49:27;;;;;;;0.10;0.10;;;-1.00;81.00;;;;;;4982517;28;20078;-75
2021/03/07 06:51:59;;;;;;;0.10;0.10;;;-0.90;81.00;;;;;;4981039;28;20559;-75
2021/03/07 06:54:28;;;;;;;0.30;0.10;;;-0.90;80.90;;;;;;4961068;28;20107;-75
2021/03/07 06:56:54;;;;;;;0.10;0.05;;;-0.80;80.80;;;;;;4962373;28;20043;-75
2021/03/07 06:59:22;;;;;;;0.43;0.20;;;-0.80;80.80;;;;;;4978406;28;20464;-75
2021/03/07 07:01:51;;;;;;;0.20;0.20;;;-0.70;80.80;;;;;;4959859;28;20121;-75
2021/03/07 07:04:17;;;;;;;0.35;0.20;;;-0.50;80.80;;;;;;4976709;28;20046;-75
2021/03/07 07:06:59;;;;;;;0.22;0.17;;;-0.50;80.70;;;;;;4960866;28;20063;-74
2021/03/07 07:09:25;;;;;;;0.25;0.22;;;-0.50;80.70;;;;;;4961340;28;20031;-75
2021/03/07 07:11:51;;;;;;;0.20;0.15;;;-0.40;80.60;;;;;;4960978;28;20035;-75
2021/03/07 07:14:29;;;;;;;0.20;0.20;;;-0.30;80.60;;;;;;4978267;28;20031;-75
2021/03/07 07:16:55;;;;;;;0.25;0.15;;;-0.20;80.60;;;;;;4977963;28;20493;-75
2021/03/07 07:19:21;;;;;;;0.10;0.10;;;-0.10;80.50;;;;;;4980401;28;20150;-74
2021/03/07 07:21:48;;;;;;;0.20;0.20;;;-0.10;80.30;;;;;;4980680;28;20103;-74
2021/03/07 07:24:15;;;;;;;0.50;0.10;;;0.00;80.30;;;;;;4980714;28;20058;-75
2021/03/07 07:26:40;;;;;;;0.10;0.10;;;0.10;80.30;;;;;;4980740;28;20400;-75
2021/03/07 07:29:07;;;;;;;0.30;0.30;;;0.20;80.30;;;;;;4962736;28;20043;-74
2021/03/07 07:31:41;;;;;;;0.13;0.13;;;0.30;80.20;;;;;;4958339;28;20082;-74
2021/03/07 07:34:22;;;;;;;0.35;0.20;;;0.40;80.20;;;;;;4959938;28;20053;-74
2021/03/07 07:36:51;;;;;;;0.20;0.10;;;0.40;80.10;;;;;;4976609;28;20038;-74
2021/03/07 07:39:31;;;;;;;0.10;0.10;;;0.60;80.10;;;;;;4976535;28;20397;-74
2021/03/07 07:41:57;;;;;;;0.95;0.20;;;0.80;80.20;;;;;;4977509;28;20047;-74
2021/03/07 07:44:38;;;;;;;0.30;0.30;;;0.70;80.00;;;;;;4977385;28;20039;-74
2021/03/07 07:47:04;;;;;;;0.10;0.10;;;0.90;80.10;;;;;;4977384;28;20035;-74
2021/03/07 07:49:39;;;;;;;0.20;0.20;;;0.90;80.00;;;;;;4977524;28;20129;-74
2021/03/07 07:52:38;;;;;;;0.15;0.15;;;1.10;80.00;;;;;;4979256;28;20047;-74
2021/03/07 07:55:08;;;;;;;0.10;0.10;;;1.10;80.00;;;;;;4978704;28;20398;-75
2021/03/07 07:57:40;;;;;;;0.13;0.13;;;1.20;79.90;;;;;;4978472;28;20054;-74
2021/03/07 08:00:11;;;;;;;0.28;0.20;;;1.40;79.90;;;;;;4979081;28;20413;-74
2021/03/07 08:02:54;;;;;;;0.45;0.30;;;1.40;79.90;;;;;;4978489;28;20039;-73
2021/03/07 08:05:40;;;;;;;0.52;0.25;;;1.50;79.90;;;;;;4977581;28;20043;-74
2021/03/07 08:08:08;;;;;;;0.32;0.30;;;1.60;79.80;;;;;;4963793;28;20039;-73
2021/03/07 08:10:43;;;;;;;0.20;0.20;;;1.70;79.60;;;;;;4978613;28;20146;-74
2021/03/07 08:13:23;;;;;;;0.22;0.20;;;1.80;79.60;;;;;;4960285;28;20047;-74
2021/03/07 08:15:51;;;;;;;0.90;0.40;;;2.00;79.60;;;;;;4976892;28;20078;-74
2021/03/07 08:18:18;;;;;;;0.40;0.13;;;2.10;79.50;;;;;;4975805;28;20046;-74
2021/03/07 08:21:05;;;;;;;0.52;0.17;;;2.20;79.50;;;;;;4977140;28;20413;-73
2021/03/07 08:23:54;;;;;;;0.38;0.22;;;2.30;79.50;;;;;;4975883;28;20493;-74
2021/03/07 08:26:19;;;;;;;0.10;0.10;;;2.40;79.40;;;;;;4976332;28;20047;-73
2021/03/07 08:28:45;;;;;;;0.77;0.30;;;2.40;79.30;;;;;;4976178;28;20137;-74
2021/03/07 08:31:31;;;;;;;0.30;0.30;;;2.50;79.40;;;;;;4957251;28;20429;-74
2021/03/07 08:34:19;;;;;;;0.43;0.25;;;2.60;79.50;;;;;;4961648;28;20046;-74
2021/03/07 08:36:54;;;;;;;0.20;0.20;;;2.60;79.30;;;;;;4978518;28;20110;-75
2021/03/07 08:39:20;;;;;;;0.30;0.20;;;2.80;79.40;;;;;;4975053;28;20066;-74
2021/03/07 08:41:56;;;;;;;0.40;0.32;;;2.90;79.30;;;;;;4956575;28;20453;-73
2021/03/07 08:44:22;;;;;;;0.38;0.38;;;2.90;79.30;;;;;;4973758;28;20042;-74
2021/03/07 08:46:48;;;;;;;0.22;0.20;;;3.10;79.20;;;;;;4974758;28;20130;-74
2021/03/07 08:49:19;;;;;;;0.30;0.30;;;3.10;79.10;;;;;;4973993;28;20061;-73
2021/03/07 08:51:47;;;;;;;0.47;0.30;;;3.20;79.10;;;;;;4974238;28;20045;-73
2021/03/07 08:54:16;;;;;;;0.70;0.40;;;3.30;79.10;;;;;;4973736;28;20473;-74
2021/03/07 08:56:43;;;;;;;0.80;0.40;;;3.50;79.10;;;;;;4940375;28;20401;-73
2021/03/07 08:59:10;;;;;;;0.38;0.30;;;3.50;79.00;;;;;;4974778;28;20841;-75
2021/03/07 09:01:37;;;;;;;0.68;0.40;;;3.50;78.90;;;;;;4974249;28;20378;-74
2021/03/07 09:04:05;;;;;;;0.40;0.30;;;3.50;78.90;;;;;;4975776;28;20070;-75
2021/03/07 09:06:34;;;;;;;0.40;0.30;;;3.60;79.00;;;;;;4975656;28;20047;-74
2021/03/07 09:09:07;;;;;;;0.43;0.43;;;3.70;79.00;;;;;;4973542;28;20047;-75
2021/03/07 09:11:34;;;;;;;0.30;0.30;;;3.80;78.90;;;;;;4974461;28;20043;-75
2021/03/07 09:14:00;;;;;;;0.75;0.40;;;3.80;78.80;;;;;;4958100;28;20061;-74
2021/03/07 09:16:40;;;;;;;0.98;0.63;;;3.90;78.80;;;;;;4974206;28;20097;-74
2021/03/07 09:19:22;;;;;;;0.63;0.40;;;3.90;78.70;;;;;;4974935;28;20481;-74
2021/03/07 09:22:06;;;;;;;0.32;0.32;;;4.00;78.70;;;;;;4972524;28;20383;-74
2021/03/07 09:24:32;;;;;;;0.30;0.30;;;4.20;78.70;;;;;;4973953;28;20073;-73
2021/03/07 09:27:12;;;;;;;0.45;0.30;;;4.30;78.60;;;;;;4975261;28;20038;-75
2021/03/07 09:30:01;;;;;;;0.43;0.40;;;4.60;78.20;;;;;;4980773;28;20073;-74
2021/03/07 09:32:38;;;;;;;1.55;0.38;;;4.70;77.70;;;;;;4958831;28;20130;-76
2021/03/07 09:35:31;;;;;;;0.20;0.20;;;4.90;77.40;;;;;;4974043;28;20054;-74
2021/03/07 09:38:06;;;;;;;0.50;0.28;;;5.00;77.00;;;;;;4959834;28;20078;-75
2021/03/07 09:40:37;;;;;;;0.20;0.20;;;5.20;77.20;;;;;;4977201;28;20052;-76
2021/03/07 09:43:06;;;;;;;0.45;0.30;;;5.30;76.70;;;;;;4957955;28;20031;-74
2021/03/07 09:45:33;;;;;;;0.28;0.25;;;5.40;76.40;;;;;;4957582;28;20489;-74
2021/03/07 09:47:59;;;;;;;0.38;0.30;;;5.50;76.00;;;;;;4971262;28;20050;-74
2021/03/07 09:50:25;;;;;;;0.20;0.20;;;5.50;75.90;;;;;;4973759;28;20039;-74
2021/03/07 09:52:52;;;;;;;0.20;0.20;;;5.60;76.00;;;;;;4973601;28;20031;-74
2021/03/07 09:55:29;;;;;;;0.30;0.30;;;5.70;75.70;;;;;;4971395;28;20058;-74
2021/03/07 09:58:03;;;;;;;0.68;0.30;;;5.90;75.50;;;;;;4971937;28;20413;-75
2021/03/07 10:00:30;;;;;;;0.32;0.20;;;5.90;75.20;;;;;;4957400;28;20519;-74
2021/03/07 10:02:56;;;;;;;0.30;0.20;;;5.90;75.00;;;;;;4973202;28;20046;-75
2021/03/07 10:05:22;;;;;;;0.35;0.22;;;5.90;75.10;;;;;;4973181;28;20035;-74
2021/03/07 10:07:48;;;;;;;0.22;0.22;;;6.00;74.90;;;;;;4973061;28;20046;-74
2021/03/07 10:10:23;;;;;;;0.32;0.30;;;6.00;74.80;;;;;;4973015;28;20047;-74
2021/03/07 10:12:54;;;;;;;0.20;0.20;;;6.00;74.60;;;;;;4956660;28;20485;-74
2021/03/07 10:15:33;;;;;;;0.43;0.25;;;6.00;74.50;;;;;;4940665;28;20153;-74
2021/03/07 10:18:03;;;;;;;0.30;0.30;;;6.00;74.60;;;;;;4972677;28;20045;-74
2021/03/07 10:20:46;;;;;;;0.63;0.20;;;5.90;74.50;;;;;;4972516;28;20094;-74
2021/03/07 10:23:12;;;;;;;0.13;0.13;;;6.00;74.50;;;;;;4972580;28;20183;-74
2021/03/07 10:25:41;;;;;;;0.30;0.30;;;6.00;74.60;;;;;;4973623;28;20137;-74
2021/03/07 10:28:09;;;;;;;1.67;0.40;;;6.10;74.50;;;;;;4973739;28;20405;-74
2021/03/07 10:30:38;;;;;;;0.43;0.30;;;6.20;74.30;;;;;;4972680;28;20406;-74
2021/03/07 10:33:13;;;;;;;0.25;0.20;;;6.20;74.30;;;;;;4972703;28;20051;-74
2021/03/07 10:35:56;;;;;;;0.20;0.20;;;6.40;74.10;;;;;;4955724;28;20404;-74
2021/03/07 10:38:22;;;;;;;0.20;0.20;;;6.50;73.80;;;;;;4970978;28;20050;-74
2021/03/07 10:40:48;;;;;;;0.20;0.20;;;6.40;73.40;;;;;;4955514;28;20039;-74
2021/03/07 10:43:13;;;;;;;0.30;0.30;;;6.50;73.50;;;;;;4973077;28;20166;-74
2021/03/07 10:45:40;;;;;;;0.40;0.40;;;6.50;73.40;;;;;;4955241;28;20480;-74
2021/03/07 10:48:08;;;;;;;0.60;0.30;;;6.60;73.60;;;;;;4972434;28;20563;-74
2021/03/07 10:50:35;;;;;;;0.47;0.30;;;6.60;73.30;;;;;;4973188;28;20809;-74
2021/03/07 10:53:02;;;;;;;0.20;0.20;;;6.70;73.00;;;;;;4974382;28;20042;-74
2021/03/07 10:55:28;;;;;;;0.20;0.20;;;6.60;72.50;;;;;;4977498;28;20042;-75
2021/03/07 10:57:54;;;;;;;0.20;0.20;;;6.60;72.70;;;;;;4977222;28;20129;-74
2021/03/07 11:00:21;;;;;;;0.10;0.10;;;6.80;73.10;;;;;;4959960;28;20138;-75
2021/03/07 11:02:47;;;;;;;0.30;0.30;;;6.90;72.70;;;;;;4978465;28;20062;-75
2021/03/07 11:05:14;;;;;;;0.50;0.20;;;7.10;72.30;;;;;;4979432;28;20469;-74
2021/03/07 11:07:41;;;;;;;0.28;0.28;;;7.30;71.90;;;;;;4979350;28;20072;-74
2021/03/07 11:10:09;;;;;;;0.22;0.22;;;7.50;71.50;;;;;;4978474;28;20046;-75
2021/03/07 11:12:36;;;;;;;0.40;0.30;;;7.60;71.10;;;;;;4961965;28;20429;-75
2021/03/07 11:15:05;;;;;;;0.22;0.20;;;7.50;71.00;;;;;;4978032;28;20552;-74
2021/03/07 11:17:31;;;;;;;0.22;0.20;;;7.40;71.00;;;;;;4979235;28;20050;-75
2021/03/07 11:19:57;;;;;;;0.55;0.30;;;7.50;71.10;;;;;;4981150;28;20049;-74
2021/03/07 11:22:23;;;;;;;0.30;0.30;;;7.60;71.50;;;;;;4960544;28;20050;-74
2021/03/07 11:24:49;;;;;;;0.20;0.20;;;7.70;70.80;;;;;;4977450;28;20039;-74
2021/03/07 11:27:14;;;;;;;1.02;0.40;;;7.90;70.50;;;;;;4960357;28;20118;-75
2021/03/07 11:29:40;;;;;;;0.30;0.30;;;8.00;70.20;;;;;;4979139;28;20035;-74
2021/03/07 11:32:06;;;;;;;0.20;0.20;;;8.00;69.50;;;;;;4958237;28;20041;-74
2021/03/07 11:34:32;;;;;;;0.20;0.20;;;8.10;69.50;;;;;;4975939;28;20038;-74
2021/03/07 11:36:58;;;;;;;0.75;0.30;;;8.10;69.20;;;;;;4975208;28;20442;-74
2021/03/07 11:39:24;;;;;;;0.43;0.22;;;8.10;69.30;;;;;;4975082;28;20401;-74
2021/03/07 11:41:49;;;;;;;0.32;0.28;;;8.10;69.30;;;;;;4976173;28;20038;-74
2021/03/07 11:44:15;;;;;;;0.20;0.20;;;8.10;69.30;;;;;;4975666;28;20050;-74
2021/03/07 11:46:42;;;;;;;0.20;0.20;;;8.10;69.20;;;;;;4977344;28;20049;-74
2021/03/07 11:49:07;;;;;;;0.28;0.25;;;7.90;69.10;;;;;;4976431;28;20050;-74
2021/03/07 11:51:34;;;;;;;0.40;0.30;;;7.80;69.40;;;;;;4958912;28;20050;-75
2021/03/07 11:54:02;;;;;;;0.90;0.22;;;7.80;69.70;;;;;;4960965;28;20139;-74
2021/03/07 11:56:28;;;;;;;0.55;0.30;;;7.80;69.60;;;;;;4975354;28;20460;-75
2021/03/07 11:58:54;;;;;;;0.30;0.30;;;7.70;69.70;;;;;;4975878;28;20039;-75
2021/03/07 12:01:20;;;;;;;0.20;0.20;;;7.60;69.80;;;;;;4959097;28;20054;-75
2021/03/07 12:03:46;;;;;;;0.30;0.30;;;7.60;69.90;;;;;;4976417;28;20038;-75
2021/03/07 12:06:11;;;;;;;0.30;0.30;;;7.50;69.70;;;;;;4976337;28;20039;-75
2021/03/07 12:08:37;;;;;;;0.50;0.50;;;7.60;69.70;;;;;;4977097;28;20498;-75
2021/03/07 12:11:04;;;;;;;0.40;0.40;;;7.60;69.40;;;;;;4960083;28;20039;-75
2021/03/07 12:13:30;;;;;;;0.68;0.40;;;7.50;69.30;;;;;;4976615;28;20047;-75
2021/03/07 12:15:55;;;;;;;0.77;0.25;;;7.40;69.30;;;;;;4975323;28;20039;-75
2021/03/07 12:18:21;;;;;;;0.38;0.38;;;7.40;69.40;;;;;;4939848;28;20054;-75
2021/03/07 12:20:47;;;;;;;0.30;0.25;;;7.40;69.60;;;;;;4974901;28;20151;-75
2021/03/07 12:23:13;;;;;;;0.55;0.30;;;7.60;69.80;;;;;;4957115;28;20383;-75
2021/03/07 12:25:39;;;;;;;2.05;0.50;;;7.60;69.40;;;;;;4976696;28;20478;-75
2021/03/07 12:28:05;;;;;;;0.22;0.20;;;7.70;68.90;;;;;;4975375;28;20110;-75
2021/03/07 12:30:31;;;;;;;0.40;0.35;;;7.70;68.70;;;;;;4975415;28;20045;-75
2021/03/07 12:32:56;;;;;;;0.30;0.30;;;7.70;68.70;;;;;;4958373;28;20121;-75
2021/03/07 12:35:22;;;;;;;0.45;0.22;;;7.70;68.70;;;;;;4975091;28;20105;-75
2021/03/07 12:37:48;;;;;;;0.30;0.30;;;7.70;68.80;;;;;;4974523;28;20046;-75
2021/03/07 12:40:14;;;;;;;0.70;0.20;;;7.80;68.80;;;;;;4974004;28;20042;-75
2021/03/07 12:42:39;;;;;;;0.63;0.30;;;7.70;68.70;;;;;;4975909;28;20544;-75
2021/03/07 12:45:06;;;;;;;0.20;0.20;;;7.70;68.60;;;;;;4976188;28;20046;-75
2021/03/07 12:47:32;;;;;;;0.65;0.43;;;7.80;68.70;;;;;;4977555;28;20053;-75
2021/03/07 12:49:57;;;;;;;0.98;0.40;;;7.60;68.50;;;;;;4957344;28;20118;-76
2021/03/07 12:52:23;;;;;;;0.32;0.32;;;7.50;68.60;;;;;;4974643;28;20429;-75
2021/03/07 12:54:49;;;;;;;0.70;0.50;;;7.50;68.60;;;;;;4973961;28;20047;-75
2021/03/07 12:57:14;;;;;;;0.50;0.40;;;7.40;68.60;;;;;;4956381;28;20058;-75
2021/03/07 12:59:40;;;;;;;0.47;0.40;;;7.40;68.90;;;;;;4956513;28;20515;-75
2021/03/07 13:02:06;;;;;;;0.55;0.38;;;7.40;68.80;;;;;;4974018;28;20077;-75